Time;durP1;ratioP1;P1;durP2;ratioP2;P2;SDS_P1;SDS_P2;PMS_P1;PMS_P2;Temp;Humidity;BMP_temperature;BMP_pressure;BME280_temperature;BME280_humidity;BME280_pressure;Samples;Min_cycle;Max_cycle;Signal;HPM_P1;HPM_P2
2023/06/30 00:00:12;;;;;;;0.60;0.52;;;;;;;19.89;57.54;99717.00;4462224;31;32579;-86
2023/06/30 00:02:41;;;;;;;0.82;0.50;;;;;;;19.88;57.49;99718.00;4466822;32;34032;-86
2023/06/30 00:05:09;;;;;;;0.43;0.43;;;;;;;19.77;57.77;99718.91;4454249;31;32304;-86
2023/06/30 00:07:37;;;;;;;0.30;0.30;;;;;;;19.79;58.12;99718.75;4450417;31;32288;-87
2023/06/30 00:10:07;;;;;;;0.20;0.20;;;;;;;19.69;57.92;99714.16;4480512;31;34780;-87
2023/06/30 00:12:34;;;;;;;3.00;0.65;;;;;;;19.66;58.18;99714.44;4464905;31;31928;-86
2023/06/30 00:15:02;;;;;;;2.83;1.20;;;;;;;19.55;58.58;99710.91;4467205;31;33435;-87
2023/06/30 00:17:30;;;;;;;1.20;0.95;;;;;;;19.65;58.29;99710.06;4475892;31;34823;-87
2023/06/30 00:19:58;;;;;;;0.10;0.10;;;;;;;19.70;58.38;99704.31;4462265;31;32422;-88
2023/06/30 00:22:27;;;;;;;0.32;0.32;;;;;;;19.72;58.06;99701.50;4449289;31;31910;-87
2023/06/30 00:24:56;;;;;;;0.00;0.00;;;;;;;19.65;58.04;99702.03;4475981;31;32647;-87
2023/06/30 00:27:23;;;;;;;0.45;0.45;;;;;;;19.64;58.00;99703.00;4461808;31;33909;-87
2023/06/30 00:29:51;;;;;;;1.15;0.80;;;;;;;19.73;57.70;99703.22;4463743;31;33187;-85
2023/06/30 00:32:20;;;;;;;1.15;0.73;;;;;;;19.61;58.06;99702.41;4487410;31;33444;-85
2023/06/30 00:34:47;;;;;;;0.32;0.25;;;;;;;19.47;58.56;99708.03;4464966;31;32390;-86
2023/06/30 00:37:15;;;;;;;0.55;0.55;;;;;;;19.49;58.58;99701.53;4475444;31;33295;-86
2023/06/30 00:39:43;;;;;;;3.50;0.77;;;;;;;19.51;58.44;99701.41;4464827;31;34133;-86
2023/06/30 00:42:10;;;;;;;0.80;0.62;;;;;;;19.36;58.81;99706.19;4474733;31;33104;-85
2023/06/30 00:44:38;;;;;;;1.12;0.93;;;;;;;19.17;59.14;99691.62;4478751;31;33836;-85
2023/06/30 00:47:05;;;;;;;0.90;0.28;;;;;;;19.14;59.41;99697.25;4470675;31;33102;-85
2023/06/30 00:49:33;;;;;;;0.30;0.30;;;;;;;19.19;58.99;99699.56;4476900;31;33641;-85
2023/06/30 00:52:01;;;;;;;2.20;0.57;;;;;;;19.19;58.92;99695.06;4462766;31;33295;-84
2023/06/30 00:54:29;;;;;;;0.25;0.20;;;;;;;19.28;58.79;99692.62;4463552;31;32259;-85
2023/06/30 00:56:58;;;;;;;10.82;0.45;;;;;;;19.21;58.86;99692.25;4456694;31;32738;-85
2023/06/30 00:59:26;;;;;;;0.82;0.62;;;;;;;19.09;59.42;99691.44;4457921;31;32375;-85
2023/06/30 01:01:58;;;;;;;0.75;0.75;;;;;;;19.18;59.21;99690.69;4462120;31;30344;-85
2023/06/30 01:04:47;;;;;;;0.15;0.15;;;;;;;19.06;59.45;99693.50;4476595;31;33877;-85
2023/06/30 01:07:38;;;;;;;0.10;0.10;;;;;;;19.04;59.23;99693.63;4473923;31;34032;-85
2023/06/30 01:10:10;;;;;;;1.65;0.57;;;;;;;19.06;59.44;99688.97;4464778;31;34646;-86
2023/06/30 01:12:39;;;;;;;0.40;0.40;;;;;;;19.00;59.52;99688.63;4462342;31;32576;-86
2023/06/30 01:15:09;;;;;;;0.35;0.35;;;;;;;19.09;59.36;99688.75;4451773;32;32225;-86
2023/06/30 01:17:43;;;;;;;0.20;0.20;;;;;;;18.99;59.59;99682.44;4474384;31;33300;-86
2023/06/30 01:20:13;;;;;;;0.22;0.22;;;;;;;18.90;59.98;99683.19;4475326;31;33852;-85
2023/06/30 01:22:48;;;;;;;1.67;0.77;;;;;;;18.97;59.68;99683.53;4459272;31;33197;-86
2023/06/30 01:25:21;;;;;;;0.13;0.13;;;;;;;18.94;59.95;99679.25;4474934;31;33814;-85
2023/06/30 01:27:49;;;;;;;0.40;0.40;;;;;;;18.87;59.90;99684.25;4473690;31;33564;-85
2023/06/30 01:30:18;;;;;;;0.28;0.28;;;;;;;18.83;59.89;99687.31;4467662;31;35232;-86
2023/06/30 01:32:46;;;;;;;0.50;0.50;;;;;;;18.95;59.83;99686.34;4462531;31;32067;-85
2023/06/30 01:35:14;;;;;;;0.47;0.30;;;;;;;18.89;59.88;99684.97;4462069;31;34096;-85
2023/06/30 01:37:42;;;;;;;0.45;0.45;;;;;;;18.83;59.94;99679.28;4475714;31;33562;-85
2023/06/30 01:40:10;;;;;;;1.25;0.98;;;;;;;18.76;60.10;99681.59;4479397;31;34158;-86
2023/06/30 01:42:38;;;;;;;0.52;0.52;;;;;;;18.85;59.82;99680.03;4462916;31;32193;-86
2023/06/30 01:45:06;;;;;;;0.28;0.28;;;;;;;18.82;59.80;99669.56;4463246;31;33922;-86
2023/06/30 01:47:33;;;;;;;0.10;0.10;;;;;;;18.88;59.73;99675.25;4463386;31;34045;-86
2023/06/30 01:50:01;;;;;;;0.62;0.50;;;;;;;18.85;59.59;99672.00;4462843;31;32174;-87
2023/06/30 01:52:29;;;;;;;0.15;0.15;;;;;;;18.80;59.77;99674.16;4453416;32;32743;-88
2023/06/30 01:54:57;;;;;;;0.30;0.30;;;;;;;18.78;59.56;99674.28;4446778;31;33964;-86
2023/06/30 01:57:25;;;;;;;0.20;0.20;;;;;;;18.81;59.73;99670.53;4484971;31;33700;-87
2023/06/30 01:59:53;;;;;;;0.20;0.13;;;;;;;18.76;59.86;99665.56;4446861;31;31147;-87
2023/06/30 02:02:21;;;;;;;0.30;0.30;;;;;;;18.81;59.53;99667.84;4461366;31;33480;-87
2023/06/30 02:04:49;;;;;;;0.20;0.10;;;;;;;18.85;59.42;99664.81;4461372;31;32633;-87
2023/06/30 02:07:17;;;;;;;1.65;0.45;;;;;;;18.77;59.35;99664.56;4475000;31;34656;-88
2023/06/30 02:09:44;;;;;;;0.37;0.37;;;;;;;18.64;59.89;99669.16;4475547;31;32762;-87
2023/06/30 02:12:16;;;;;;;0.10;0.00;;;;;;;18.69;59.88;99661.66;4462449;31;35257;-86
2023/06/30 02:14:43;;;;;;;0.15;0.15;;;;;;;18.65;59.87;99661.00;4465931;31;33961;-86
2023/06/30 02:17:12;;;;;;;0.15;0.10;;;;;;;18.70;59.82;99660.66;4445988;31;32934;-86
2023/06/30 02:19:39;;;;;;;13.45;1.27;;;;;;;18.65;59.81;99663.66;4454178;31;32403;-86
2023/06/30 02:22:07;;;;;;;0.20;0.20;;;;;;;18.58;60.15;99657.13;4463596;31;34188;-85
2023/06/30 02:24:35;;;;;;;0.08;0.08;;;;;;;18.58;60.18;99664.31;4465046;32;33157;-85
2023/06/30 02:27:02;;;;;;;0.28;0.28;;;;;;;18.60;60.08;99665.87;4461016;31;32484;-85
2023/06/30 02:29:31;;;;;;;0.73;0.73;;;;;;;18.77;59.46;99663.72;4462565;31;33006;-86
2023/06/30 02:31:58;;;;;;;0.20;0.20;;;;;;;18.58;59.93;99665.16;4451948;31;32277;-85
2023/06/30 02:34:26;;;;;;;0.80;0.80;;;;;;;18.54;60.21;99655.66;4465266;32;33838;-85
2023/06/30 02:36:53;;;;;;;0.10;0.10;;;;;;;18.47;60.27;99665.16;4464937;31;33210;-86
2023/06/30 02:39:24;;;;;;;0.35;0.35;;;;;;;18.32;60.64;99666.31;4464397;31;32490;-86
2023/06/30 02:41:54;;;;;;;0.43;0.43;;;;;;;18.29;60.73;99655.91;4462770;31;33709;-86
2023/06/30 02:44:21;;;;;;;0.88;0.45;;;;;;;18.33;60.63;99662.72;4464003;31;34523;-86
2023/06/30 02:46:50;;;;;;;0.08;0.08;;;;;;;18.47;60.04;99659.81;4451125;31;33984;-86
2023/06/30 02:49:17;;;;;;;0.37;0.37;;;;;;;18.33;60.63;99652.00;4465302;31;33218;-88
2023/06/30 02:51:45;;;;;;;0.52;0.52;;;;;;;18.41;60.22;99649.56;4477139;31;33814;-86
2023/06/30 02:54:13;;;;;;;0.28;0.20;;;;;;;18.42;60.12;99653.97;4477528;32;33588;-87
2023/06/30 02:56:41;;;;;;;0.37;0.37;;;;;;;18.40;60.05;99658.56;4461354;31;32511;-87
2023/06/30 02:59:09;;;;;;;4.35;1.23;;;;;;;18.17;60.76;99661.19;4448607;31;34414;-88
2023/06/30 03:01:37;;;;;;;0.82;0.82;;;;;;;18.16;60.86;99656.84;4487862;31;32782;-88
2023/06/30 03:04:05;;;;;;;0.30;0.30;;;;;;;18.15;60.85;99659.63;4463862;31;32893;-88
2023/06/30 03:06:34;;;;;;;0.00;0.00;;;;;;;18.23;60.98;99664.38;4462620;31;33197;-86
2023/06/30 03:09:02;;;;;;;0.70;0.70;;;;;;;18.32;60.52;99660.97;4450868;31;33461;-86
2023/06/30 03:11:30;;;;;;;0.37;0.37;;;;;;;18.27;60.81;99660.50;4478013;31;33147;-86
2023/06/30 03:13:58;;;;;;;0.37;0.37;;;;;;;18.28;60.89;99660.41;4461241;31;32404;-85
2023/06/30 03:16:28;;;;;;;0.37;0.37;;;;;;;18.33;60.68;99660.88;4479089;31;34967;-86
2023/06/30 03:18:56;;;;;;;0.20;0.20;;;;;;;18.29;60.67;99658.56;4463498;31;34070;-85
2023/06/30 03:21:23;;;;;;;0.98;0.88;;;;;;;18.26;60.85;99661.47;4491263;31;33385;-86
2023/06/30 03:23:51;;;;;;;0.28;0.25;;;;;;;18.29;60.72;99661.25;4451786;31;32875;-85
2023/06/30 03:26:19;;;;;;;0.57;0.57;;;;;;;18.20;61.07;99657.44;4448012;31;33026;-85
2023/06/30 03:28:47;;;;;;;0.40;0.40;;;;;;;18.16;61.50;99656.84;4445581;31;33724;-85
2023/06/30 03:31:14;;;;;;;0.20;0.20;;;;;;;18.13;61.76;99659.72;4462625;31;32152;-87
2023/06/30 03:33:42;;;;;;;0.45;0.45;;;;;;;18.20;61.64;99661.94;4462587;31;31148;-87
2023/06/30 03:36:10;;;;;;;0.10;0.10;;;;;;;18.20;61.76;99669.97;4475755;31;32361;-87
2023/06/30 03:38:38;;;;;;;0.37;0.37;;;;;;;18.22;61.87;99670.69;4455679;31;32260;-87
2023/06/30 03:41:05;;;;;;;0.20;0.20;;;;;;;18.36;61.43;99663.28;4490952;31;34171;-87
2023/06/30 03:43:34;;;;;;;0.20;0.20;;;;;;;18.35;61.68;99663.44;4463846;31;32031;-88
2023/06/30 03:46:01;;;;;;;4.45;2.20;;;;;;;18.61;60.63;99656.00;4462767;31;32463;-86
2023/06/30 03:48:29;;;;;;;0.80;0.80;;;;;;;18.55;61.29;99660.03;4465443;31;32922;-88
2023/06/30 03:50:57;;;;;;;0.40;0.40;;;;;;;18.67;61.20;99651.03;4465053;31;33344;-86
2023/06/30 03:53:25;;;;;;;0.40;0.40;;;;;;;18.73;61.22;99643.53;4479244;31;33437;-85
2023/06/30 03:55:52;;;;;;;11.88;0.93;;;;;;;19.01;59.99;99653.72;4477009;31;32906;-86
2023/06/30 03:58:20;;;;;;;0.73;0.52;;;;;;;18.96;60.27;99661.28;4473541;31;32554;-85
2023/06/30 04:00:48;;;;;;;0.90;0.50;;;;;;;19.11;60.11;99654.66;4464916;31;31582;-85
2023/06/30 04:03:15;;;;;;;0.10;0.10;;;;;;;19.39;59.34;99655.09;4467038;31;32582;-85
2023/06/30 04:05:43;;;;;;;0.13;0.13;;;;;;;19.74;58.13;99651.31;4462589;31;33726;-86
2023/06/30 04:08:11;;;;;;;0.32;0.32;;;;;;;20.06;55.91;99652.13;4459072;31;33318;-86
2023/06/30 04:10:39;;;;;;;0.10;0.10;;;;;;;20.13;55.93;99642.59;4463622;31;34034;-87
2023/06/30 04:13:07;;;;;;;0.32;0.32;;;;;;;19.82;57.56;99647.03;4462544;31;32123;-87
2023/06/30 04:15:34;;;;;;;0.22;0.22;;;;;;;19.87;57.96;99642.13;4480140;31;33463;-87
2023/06/30 04:18:04;;;;;;;1.00;0.80;;;;;;;19.97;57.46;99639.50;4457578;31;33030;-87
2023/06/30 04:20:31;;;;;;;0.45;0.45;;;;;;;20.09;57.07;99635.78;4460752;31;32471;-87
2023/06/30 04:22:59;;;;;;;1.12;1.02;;;;;;;20.17;56.77;99641.31;4449342;31;32276;-88
2023/06/30 04:25:27;;;;;;;0.30;0.17;;;;;;;20.30;56.29;99637.59;4452639;31;34786;-87
2023/06/30 04:27:55;;;;;;;0.30;0.30;;;;;;;20.43;56.00;99646.28;4449056;31;32631;-86
2023/06/30 04:30:22;;;;;;;0.10;0.10;;;;;;;20.63;55.64;99637.38;4449112;31;33692;-86
2023/06/30 04:32:50;;;;;;;0.30;0.30;;;;;;;21.08;54.88;99644.13;4463068;31;33868;-86
2023/06/30 04:35:18;;;;;;;0.90;0.85;;;;;;;21.13;54.54;99644.59;4481352;31;33181;-86
2023/06/30 04:37:45;;;;;;;0.10;0.10;;;;;;;21.35;54.10;99644.34;4490544;31;34520;-84
2023/06/30 04:40:13;;;;;;;0.60;0.60;;;;;;;21.52;53.81;99652.72;4464413;31;32976;-86
2023/06/30 04:42:41;;;;;;;1.55;0.95;;;;;;;21.61;53.32;99644.69;4462487;31;34337;-86
2023/06/30 04:45:09;;;;;;;0.15;0.15;;;;;;;21.47;54.37;99637.03;4460585;32;33327;-86
2023/06/30 04:47:36;;;;;;;0.47;0.47;;;;;;;21.37;54.72;99634.34;4477928;31;32514;-86
2023/06/30 04:50:04;;;;;;;0.20;0.20;;;;;;;21.34;54.39;99628.41;4463452;31;33857;-86
2023/06/30 04:52:32;;;;;;;1.15;0.90;;;;;;;21.62;53.67;99635.63;4442689;31;33204;-86
2023/06/30 04:55:00;;;;;;;0.32;0.32;;;;;;;21.66;53.53;99628.13;4468005;32;33642;-86
2023/06/30 04:57:28;;;;;;;0.37;0.37;;;;;;;21.91;52.93;99632.06;4443045;31;32745;-86
2023/06/30 04:59:56;;;;;;;0.30;0.30;;;;;;;22.04;53.20;99629.94;4466340;31;32100;-86
2023/06/30 05:02:24;;;;;;;0.37;0.37;;;;;;;22.09;53.32;99624.97;4439324;32;33974;-86
2023/06/30 05:04:52;;;;;;;0.82;0.82;;;;;;;22.07;53.53;99632.31;4464557;32;32121;-85
2023/06/30 05:07:19;;;;;;;0.45;0.30;;;;;;;22.27;53.55;99625.09;4445710;31;32440;-86
2023/06/30 05:09:47;;;;;;;0.80;0.37;;;;;;;22.46;52.23;99616.12;4480684;31;33218;-85
2023/06/30 05:12:15;;;;;;;0.50;0.50;;;;;;;22.60;51.21;99622.84;4470047;31;33304;-85
2023/06/30 05:14:42;;;;;;;0.88;0.75;;;;;;;22.76;50.95;99617.69;4461882;31;33637;-86
2023/06/30 05:17:10;;;;;;;1.23;0.98;;;;;;;22.80;51.43;99613.69;4464267;31;33968;-86
2023/06/30 05:19:38;;;;;;;0.75;0.75;;;;;;;22.85;51.81;99618.63;4460651;31;33607;-86
2023/06/30 05:22:06;;;;;;;0.90;0.85;;;;;;;22.89;51.78;99607.44;4451994;31;32405;-86
2023/06/30 05:24:34;;;;;;;1.65;0.60;;;;;;;23.03;51.61;99616.84;4472646;31;32660;-86
2023/06/30 05:27:01;;;;;;;0.77;0.77;;;;;;;23.18;51.82;99618.03;4463610;32;200711;-86
2023/06/30 05:29:31;;;;;;;0.88;0.68;;;;;;;23.36;50.94;99609.09;4455063;32;31551;-86
2023/06/30 05:31:59;;;;;;;0.22;0.22;;;;;;;23.43;50.79;99616.41;4451276;31;32758;-86
2023/06/30 05:34:28;;;;;;;0.65;0.55;;;;;;;23.36;51.71;99617.16;4476049;32;33573;-86
2023/06/30 05:36:57;;;;;;;0.68;0.68;;;;;;;23.70;50.38;99612.81;4473469;31;34287;-85
2023/06/30 05:39:25;;;;;;;0.13;0.13;;;;;;;23.65;50.41;99617.84;4486756;31;34337;-85
2023/06/30 05:41:52;;;;;;;0.37;0.35;;;;;;;23.61;50.17;99613.72;4461475;31;33379;-85
2023/06/30 05:44:20;;;;;;;0.20;0.20;;;;;;;23.87;50.39;99604.84;4464773;31;32599;-86
2023/06/30 05:46:48;;;;;;;0.57;0.32;;;;;;;24.07;50.36;99614.47;4459841;31;32991;-86
2023/06/30 05:49:15;;;;;;;0.70;0.70;;;;;;;24.42;48.12;99615.38;4472052;32;33799;-85
2023/06/30 05:51:43;;;;;;;0.15;0.15;;;;;;;24.61;47.81;99607.03;4450940;31;32478;-85
2023/06/30 05:54:12;;;;;;;0.17;0.17;;;;;;;24.60;48.63;99613.44;4447428;31;33022;-85
2023/06/30 05:56:40;;;;;;;2.03;1.17;;;;;;;24.67;48.32;99611.78;4466361;31;34221;-85
2023/06/30 05:59:10;;;;;;;0.22;0.22;;;;;;;24.39;48.75;99619.22;4472594;31;32283;-86
2023/06/30 06:01:38;;;;;;;3.28;1.25;;;;;;;24.69;48.97;99615.19;4469261;31;32677;-85
2023/06/30 06:04:10;;;;;;;0.20;0.20;;;;;;;24.87;48.31;99617.75;4459338;31;33609;-86
2023/06/30 06:06:38;;;;;;;0.43;0.43;;;;;;;24.96;47.77;99621.34;4469228;31;33905;-86
2023/06/30 06:09:06;;;;;;;2.25;0.85;;;;;;;25.39;47.21;99624.88;4470310;31;36058;-86
2023/06/30 06:11:34;;;;;;;0.62;0.50;;;;;;;25.47;46.63;99611.38;4456248;31;33048;-86
2023/06/30 06:14:01;;;;;;;16.00;1.30;;;;;;;25.76;45.66;99613.59;4459921;31;32593;-86
2023/06/30 06:16:29;;;;;;;0.37;0.37;;;;;;;25.56;46.06;99610.38;4472351;31;33841;-86
2023/06/30 06:18:57;;;;;;;2.17;1.25;;;;;;;25.74;46.67;99613.75;4463622;31;31349;-86
2023/06/30 06:21:27;;;;;;;0.68;0.68;;;;;;;25.76;45.41;99610.91;4458802;31;33804;-86
2023/06/30 06:23:55;;;;;;;0.35;0.22;;;;;;;25.91;45.20;99611.06;4470311;31;33651;-86
2023/06/30 06:26:22;;;;;;;0.50;0.50;;;;;;;26.19;45.15;99604.25;4466118;31;32189;-86
2023/06/30 06:28:50;;;;;;;2.05;0.88;;;;;;;26.29;44.48;99610.31;4473311;31;34190;-85
2023/06/30 06:31:18;;;;;;;3.72;1.10;;;;;;;25.87;44.37;99612.41;4477336;31;33770;-85
2023/06/30 06:33:45;;;;;;;0.43;0.43;;;;;;;26.71;42.91;99603.81;4455988;31;32730;-86
2023/06/30 06:36:13;;;;;;;0.98;0.73;;;;;;;26.73;42.90;99599.06;4455650;32;34293;-87
2023/06/30 06:38:41;;;;;;;0.40;0.40;;;;;;;26.81;42.83;99595.47;4465001;31;33281;-86
2023/06/30 06:41:08;;;;;;;1.90;0.68;;;;;;;26.96;43.53;99590.13;4441901;31;33350;-87
2023/06/30 06:43:35;;;;;;;0.57;0.57;;;;;;;27.03;42.17;99597.37;4457094;31;33802;-85
2023/06/30 06:46:03;;;;;;;0.50;0.50;;;;;;;27.23;39.31;99586.97;4464107;32;32573;-89
2023/06/30 06:48:31;;;;;;;0.85;0.75;;;;;;;27.24;39.22;99588.63;4477174;31;33414;-89
2023/06/30 06:51:02;;;;;;;3.20;0.88;;;;;;;27.40;39.81;99592.28;4481376;31;33696;-89
2023/06/30 06:53:33;;;;;;;0.40;0.40;;;;;;;27.28;39.32;99589.13;4451407;31;33259;-89
2023/06/30 06:56:02;;;;;;;0.75;0.73;;;;;;;27.25;39.46;99593.06;4467294;31;32808;-89
2023/06/30 06:58:32;;;;;;;0.20;0.20;;;;;;;26.90;39.12;99597.13;4454609;31;34195;-89
2023/06/30 07:01:00;;;;;;;0.73;0.73;;;;;;;26.89;39.60;99589.16;4456013;31;34192;-88
2023/06/30 07:03:27;;;;;;;2.85;1.05;;;;;;;27.39;38.90;99593.28;4456589;31;33501;-90
2023/06/30 07:05:56;;;;;;;0.52;0.52;;;;;;;27.62;40.00;99583.28;4450685;31;33957;-90
2023/06/30 07:08:24;;;;;;;0.35;0.35;;;;;;;27.78;37.53;99591.31;4441258;31;32606;-90
2023/06/30 07:10:52;;;;;;;1.55;1.17;;;;;;;27.62;38.17;99590.56;4456430;31;32102;-87
2023/06/30 07:13:21;;;;;;;0.32;0.32;;;;;;;27.60;38.84;99588.06;4453790;32;34059;-87
2023/06/30 07:15:50;;;;;;;0.52;0.52;;;;;;;27.40;39.94;99592.28;4451204;31;33236;-87
2023/06/30 07:18:18;;;;;;;2.10;0.98;;;;;;;27.85;39.18;99586.00;4474075;31;33345;-87
2023/06/30 07:20:48;;;;;;;0.17;0.17;;;;;;;27.93;38.21;99585.09;4462337;31;33580;-87
2023/06/30 07:23:16;;;;;;;0.43;0.43;;;;;;;28.05;38.81;99576.28;4464915;31;33656;-87
2023/06/30 07:25:44;;;;;;;0.95;0.93;;;;;;;28.08;39.13;99583.25;4467483;31;33723;-87
2023/06/30 07:28:13;;;;;;;0.82;0.82;;;;;;;28.49;39.37;99580.13;4465356;31;33429;-87
2023/06/30 07:30:41;;;;;;;0.93;0.90;;;;;;;28.49;37.59;99572.81;4463081;32;32503;-88
2023/06/30 07:33:12;;;;;;;0.77;0.77;;;;;;;28.31;38.71;99575.88;4461933;31;34698;-87
2023/06/30 07:35:48;;;;;;;0.47;0.47;;;;;;;28.39;39.06;99577.69;4438392;31;32586;-87
2023/06/30 07:38:19;;;;;;;0.95;0.77;;;;;;;28.96;37.76;99574.28;4457834;31;32430;-87
2023/06/30 07:40:47;;;;;;;0.40;0.40;;;;;;;28.79;37.47;99573.63;4458887;31;33597;-87
2023/06/30 07:43:23;;;;;;;0.37;0.37;;;;;;;29.02;35.96;99572.66;4446517;31;32282;-87
2023/06/30 07:45:51;;;;;;;0.52;0.52;;;;;;;29.22;35.61;99571.00;4465650;31;32608;-87
2023/06/30 07:48:19;;;;;;;5.22;1.30;;;;;;;28.73;37.11;99574.37;4461269;31;34069;-87
2023/06/30 07:50:47;;;;;;;0.88;0.68;;;;;;;29.09;36.08;99576.28;4455384;31;32239;-87
2023/06/30 07:53:34;;;;;;;0.30;0.30;;;;;;;28.68;34.74;99565.97;4459114;31;34182;-87
2023/06/30 07:56:01;;;;;;;0.52;0.52;;;;;;;29.20;35.07;99569.50;4472257;31;32725;-87
2023/06/30 07:58:29;;;;;;;0.65;0.55;;;;;;;28.94;33.14;99565.44;4453632;31;33228;-86
2023/06/30 08:00:56;;;;;;;3.55;0.57;;;;;;;29.05;33.88;99566.81;4470041;31;35670;-88
2023/06/30 08:03:25;;;;;;;0.50;0.50;;;;;;;29.00;34.01;99555.69;4468469;31;34752;-88
2023/06/30 08:05:55;;;;;;;0.40;0.40;;;;;;;29.06;34.35;99560.38;4466990;31;33765;-88
2023/06/30 08:08:23;;;;;;;0.25;0.22;;;;;;;29.02;34.25;99556.34;4461583;31;34175;-87
2023/06/30 08:10:51;;;;;;;0.28;0.28;;;;;;;28.56;35.90;99557.44;4452956;32;32890;-87
2023/06/30 08:13:19;;;;;;;0.30;0.30;;;;;;;29.05;35.10;99556.78;4456622;31;32954;-88
2023/06/30 08:15:46;;;;;;;0.40;0.40;;;;;;;29.27;34.17;99554.94;4469018;31;33349;-87
2023/06/30 08:18:16;;;;;;;0.10;0.10;;;;;;;29.17;33.97;99550.87;4484464;31;33492;-87
2023/06/30 08:21:01;;;;;;;0.50;0.50;;;;;;;28.62;34.04;99550.41;4468716;31;33171;-87
2023/06/30 08:23:30;;;;;;;0.22;0.10;;;;;;;29.20;33.45;99551.34;4462608;31;34692;-88
2023/06/30 08:25:58;;;;;;;0.80;0.50;;;;;;;29.14;34.17;99546.63;4453356;32;32439;-87
2023/06/30 08:28:26;;;;;;;7.28;1.35;;;;;;;29.48;33.42;99545.97;4456492;31;31875;-87
2023/06/30 08:30:54;;;;;;;0.10;0.10;;;;;;;29.85;33.26;99542.09;4467228;31;33162;-88
2023/06/30 08:33:26;;;;;;;0.17;0.17;;;;;;;30.23;33.41;99546.34;4470665;32;33639;-88
2023/06/30 08:36:09;;;;;;;1.20;0.90;;;;;;;30.24;33.33;99546.19;4470952;31;34875;-87
2023/06/30 08:38:36;;;;;;;0.20;0.20;;;;;;;30.48;31.09;99536.66;4467834;32;32179;-87
2023/06/30 08:41:04;;;;;;;0.45;0.45;;;;;;;30.05;32.15;99547.69;4443597;31;32530;-87
2023/06/30 08:43:32;;;;;;;0.57;0.50;;;;;;;30.22;34.70;99545.53;4458853;31;33778;-88
2023/06/30 08:46:03;;;;;;;0.90;0.50;;;;;;;30.02;31.71;99539.06;4461706;31;33838;-88
2023/06/30 08:48:31;;;;;;;0.88;0.52;;;;;;;30.23;31.98;99544.47;4462676;31;31735;-88
2023/06/30 08:50:59;;;;;;;0.93;0.80;;;;;;;30.21;31.86;99543.84;4457085;31;33646;-88
2023/06/30 08:53:28;;;;;;;0.40;0.40;;;;;;;30.02;31.46;99547.25;4472788;31;33541;-87
2023/06/30 08:55:59;;;;;;;0.05;0.05;;;;;;;30.44;30.99;99531.81;4447976;31;31976;-87
2023/06/30 08:58:27;;;;;;;0.62;0.55;;;;;;;30.37;29.31;99533.66;4459245;31;32813;-87
2023/06/30 09:00:55;;;;;;;0.32;0.32;;;;;;;30.27;30.39;99534.88;4453001;31;34161;-88
2023/06/30 09:03:23;;;;;;;0.95;0.60;;;;;;;30.29;30.40;99538.25;4456630;31;32803;-88
2023/06/30 09:05:54;;;;;;;0.68;0.50;;;;;;;30.71;29.70;99525.44;4455028;31;34085;-88
2023/06/30 09:08:23;;;;;;;0.73;0.55;;;;;;;31.04;29.86;99524.72;4461808;31;32213;-88
2023/06/30 09:10:52;;;;;;;0.30;0.30;;;;;;;30.59;29.62;99522.44;4465759;31;33422;-87
2023/06/30 09:13:23;;;;;;;0.55;0.15;;;;;;;30.91;31.71;99513.75;4478568;31;34065;-87
2023/06/30 09:15:54;;;;;;;0.03;0.03;;;;;;;30.74;29.58;99508.69;4460871;32;32937;-89
2023/06/30 09:18:22;;;;;;;0.30;0.30;;;;;;;30.50;30.82;99509.22;4449792;31;32829;-89
2023/06/30 09:20:51;;;;;;;0.20;0.20;;;;;;;30.83;31.40;99515.66;4447660;31;33676;-89
2023/06/30 09:23:19;;;;;;;0.70;0.65;;;;;;;30.93;30.34;99515.25;4476659;31;33684;-89
2023/06/30 09:25:47;;;;;;;0.43;0.43;;;;;;;31.20;29.68;99513.44;4474638;31;34211;-89
2023/06/30 09:28:16;;;;;;;0.30;0.30;;;;;;;31.05;28.95;99515.47;4478610;31;33732;-90
2023/06/30 09:30:47;;;;;;;1.23;0.50;;;;;;;30.66;30.01;99514.28;4487779;31;33267;-89
2023/06/30 09:33:20;;;;;;;0.20;0.20;;;;;;;31.35;28.96;99497.75;4460677;31;33431;-89
2023/06/30 09:35:48;;;;;;;0.10;0.10;;;;;;;31.15;28.48;99499.59;4438769;31;34332;-89
2023/06/30 09:38:18;;;;;;;2.05;0.80;;;;;;;31.52;29.01;99489.97;4468903;31;34137;-90
2023/06/30 09:40:48;;;;;;;0.30;0.30;;;;;;;31.30;29.70;99491.22;4450959;31;33267;-89
2023/06/30 09:43:17;;;;;;;0.57;0.57;;;;;;;31.53;29.55;99493.56;4456128;31;34035;-89
2023/06/30 09:45:53;;;;;;;0.20;0.20;;;;;;;31.64;29.36;99484.72;4451975;31;33225;-90
2023/06/30 09:48:27;;;;;;;0.47;0.47;;;;;;;31.24;28.63;99486.56;4445041;31;32266;-89
2023/06/30 09:50:55;;;;;;;0.30;0.30;;;;;;;31.05;29.44;99480.03;4452882;31;33853;-90
2023/06/30 09:53:24;;;;;;;0.32;0.32;;;;;;;30.88;30.59;99487.78;4440682;31;33752;-89
2023/06/30 09:55:52;;;;;;;2.10;0.93;;;;;;;30.85;29.96;99491.75;4439221;31;33200;-90
2023/06/30 09:58:20;;;;;;;1.02;0.20;;;;;;;31.18;30.49;99490.13;4452289;32;33359;-89
2023/06/30 10:00:50;;;;;;;0.50;0.50;;;;;;;31.53;30.18;99486.22;4439976;32;32531;-89
2023/06/30 10:03:18;;;;;;;0.30;0.30;;;;;;;31.24;29.67;99492.88;4456926;31;33500;-89
2023/06/30 10:05:49;;;;;;;0.50;0.50;;;;;;;31.22;29.39;99489.50;4456555;31;34289;-90
2023/06/30 10:08:20;;;;;;;5.05;0.90;;;;;;;31.83;29.07;99483.88;4452924;31;32448;-90
2023/06/30 10:10:51;;;;;;;0.20;0.20;;;;;;;31.49;29.43;99489.56;4454383;31;33463;-90
2023/06/30 10:13:20;;;;;;;0.30;0.30;;;;;;;31.49;29.51;99490.41;4442590;31;33185;-89
2023/06/30 10:15:48;;;;;;;2.25;0.45;;;;;;;31.61;29.99;99487.84;4455159;32;33941;-91
2023/06/30 10:18:17;;;;;;;1.02;0.60;;;;;;;31.49;30.38;99486.84;4454754;31;34454;-90
2023/06/30 10:20:45;;;;;;;0.47;0.47;;;;;;;31.75;29.04;99478.59;4440812;31;32591;-89
2023/06/30 10:23:19;;;;;;;0.30;0.30;;;;;;;32.31;29.89;99478.09;4470918;31;33201;-90
2023/06/30 10:25:48;;;;;;;0.43;0.43;;;;;;;31.75;30.24;99478.59;4442233;31;33846;-90
2023/06/30 10:28:18;;;;;;;0.25;0.25;;;;;;;31.18;30.57;99490.13;4457161;31;32707;-90
2023/06/30 10:30:49;;;;;;;0.30;0.30;;;;;;;31.40;29.48;99490.81;4453796;31;35202;-90
2023/06/30 10:33:16;;;;;;;1.52;0.77;;;;;;;31.71;29.11;99477.34;4451334;31;33254;-90
2023/06/30 10:35:45;;;;;;;0.30;0.30;;;;;;;31.06;28.58;99484.47;4456709;31;33415;-90
2023/06/30 10:38:13;;;;;;;0.30;0.30;;;;;;;32.01;28.68;99476.94;4468725;31;32150;-90
2023/06/30 10:40:41;;;;;;;0.20;0.20;;;;;;;31.90;28.33;99474.84;4440383;31;32387;-90
2023/06/30 10:43:10;;;;;;;0.30;0.30;;;;;;;31.47;27.85;99472.53;4427713;31;32849;-90
2023/06/30 10:46:04;;;;;;;3.20;0.93;;;;;;;32.01;29.06;99472.31;4448613;32;32737;-90
2023/06/30 10:48:32;;;;;;;0.10;0.10;;;;;;;31.59;28.86;99479.06;4446646;31;32830;-90
2023/06/30 10:51:04;;;;;;;0.25;0.25;;;;;;;31.61;28.22;99466.03;4445666;31;33551;-90
2023/06/30 10:53:33;;;;;;;0.32;0.32;;;;;;;32.10;29.11;99476.47;4454380;31;34801;-90
2023/06/30 10:56:02;;;;;;;0.50;0.50;;;;;;;31.99;28.71;99473.56;4460237;31;33877;-90
2023/06/30 10:58:30;;;;;;;4.10;0.65;;;;;;;31.92;28.57;99465.41;4468788;31;33011;-91
2023/06/30 11:01:05;;;;;;;0.10;0.10;;;;;;;32.12;28.34;99462.59;4450053;31;33538;-90
2023/06/30 11:03:55;;;;;;;4.45;0.40;;;;;;;31.65;28.68;99461.00;4439043;31;33356;-90
2023/06/30 11:06:24;;;;;;;2.42;0.60;;;;;;;31.02;29.48;99461.38;4453591;31;32492;-90
2023/06/30 11:09:00;;;;;;;0.32;0.30;;;;;;;31.60;30.14;99453.44;4446229;31;32540;-90
2023/06/30 11:11:28;;;;;;;4.18;0.37;;;;;;;31.42;28.61;99447.78;4443879;31;33781;-90
2023/06/30 11:14:06;;;;;;;0.00;0.00;;;;;;;31.45;27.68;99450.94;4450940;32;34118;-90
2023/06/30 11:17:06;;;;;;;0.37;0.30;;;;;;;31.56;26.94;99455.75;4458548;31;35684;-90
2023/06/30 11:19:36;;;;;;;0.77;0.57;;;;;;;31.53;25.72;99447.16;4444128;31;31924;-90
2023/06/30 11:22:32;;;;;;;0.30;0.30;;;;;;;31.93;26.76;99436.19;4456583;31;30771;-91
2023/06/30 11:25:10;;;;;;;0.10;0.10;;;;;;;32.16;26.75;99436.53;4468741;31;34506;-89
2023/06/30 11:27:40;;;;;;;0.35;0.20;;;;;;;32.01;27.23;99433.25;4442367;31;33085;-90
2023/06/30 11:30:08;;;;;;;0.40;0.35;;;;;;;32.55;27.16;99430.06;4444990;31;32607;-90
2023/06/30 11:32:36;;;;;;;0.57;0.57;;;;;;;33.01;27.73;99423.50;4442111;31;33489;-89
2023/06/30 11:35:07;;;;;;;1.10;0.75;;;;;;;32.93;27.41;99414.75;4461866;31;34527;-90
2023/06/30 11:37:37;;;;;;;0.20;0.20;;;;;;;32.19;27.52;99424.31;4451743;31;32802;-90
2023/06/30 11:40:06;;;;;;;0.43;0.43;;;;;;;31.82;28.09;99416.69;4454306;31;32707;-90
2023/06/30 11:42:38;;;;;;;5.43;0.77;;;;;;;31.86;30.02;99407.03;4441972;31;32132;-90